createdAt,value
2022-08-06T00:00:07.542Z,20.76
2022-08-06T00:02:59.861Z,20.75
2022-08-06T00:06:17.613Z,20.71
2022-08-06T00:09:56.266Z,20.66
2022-08-06T00:12:51.472Z,20.65
2022-08-06T00:16:08.938Z,20.66
2022-08-06T00:19:20.373Z,20.61
2022-08-06T00:22:33.797Z,20.54
2022-08-06T00:25:52.423Z,20.52
2022-08-06T00:29:03.137Z,20.49
2022-08-06T00:32:24.181Z,20.41
2022-08-06T00:35:34.051Z,20.38
2022-08-06T00:38:50.600Z,20.35
2022-08-06T00:42:05.657Z,20.32
2022-08-06T00:45:24.908Z,20.26
2022-08-06T00:48:53.360Z,20.22
2022-08-06T00:51:53.274Z,20.20
2022-08-06T00:55:17.067Z,20.20
2022-08-06T00:58:22.722Z,20.19
2022-08-06T01:01:49.866Z,20.17
2022-08-06T01:04:52.401Z,20.11
2022-08-06T01:08:07.821Z,20.08
2022-08-06T01:11:26.221Z,20.02
2022-08-06T01:14:40.959Z,19.99
2022-08-06T01:17:59.765Z,19.98
2022-08-06T01:22:00.516Z,19.95
2022-08-06T01:24:53.234Z,19.94
2022-08-06T01:28:10.724Z,19.92
2022-08-06T01:31:28.356Z,19.91
2022-08-06T01:34:47.287Z,19.86
2022-08-06T01:38:04.065Z,19.83
2022-08-06T01:41:21.397Z,19.79
2022-08-06T01:44:44.508Z,19.74
2022-08-06T01:47:58.690Z,19.73
2022-08-06T01:51:17.295Z,19.71
2022-08-06T01:54:32.460Z,19.65
2022-08-06T01:58:19.606Z,19.63
2022-08-06T02:01:07.156Z,19.61
2022-08-06T02:04:22.275Z,19.59
2022-08-06T02:08:36.639Z,19.61
2022-08-06T02:10:56.674Z,19.70
2022-08-06T02:14:11.590Z,19.67
2022-08-06T02:18:04.454Z,19.66
2022-08-06T02:20:53.036Z,19.65
2022-08-06T02:24:07.591Z,19.70
2022-08-06T02:27:24.101Z,19.72
2022-08-06T02:30:42.697Z,19.64
2022-08-06T02:34:03.334Z,19.65
2022-08-06T02:37:22.898Z,19.67
2022-08-06T02:40:34.404Z,19.69
2022-08-06T02:43:53.672Z,19.70
2022-08-06T02:47:17.139Z,19.75
2022-08-06T02:50:33.518Z,19.78
2022-08-06T02:54:04.999Z,19.77
2022-08-06T02:57:11.377Z,19.82
2022-08-06T03:00:29.513Z,19.86
2022-08-06T03:03:54.564Z,19.90
2022-08-06T03:07:01.727Z,19.98
2022-08-06T03:10:17.172Z,20.01
2022-08-06T03:13:36.130Z,20.06
2022-08-06T03:16:50.972Z,20.09
2022-08-06T03:20:04.401Z,20.12
2022-08-06T03:23:18.634Z,20.17
2022-08-06T03:26:32.708Z,20.26
2022-08-06T03:29:48.346Z,20.29
2022-08-06T03:33:07.562Z,20.32
2022-08-06T03:36:21.684Z,20.40
2022-08-06T03:39:38.055Z,20.48
2022-08-06T03:42:52.557Z,20.55
2022-08-06T03:46:09.179Z,20.61
2022-08-06T03:49:26.420Z,20.71
2022-08-06T03:52:43.425Z,20.77
2022-08-06T03:55:59.504Z,20.80
2022-08-06T03:59:14.492Z,20.89
2022-08-06T04:02:37.301Z,20.92
2022-08-06T04:05:47.986Z,20.96
2022-08-06T04:09:01.327Z,21.00
2022-08-06T04:13:06.537Z,21.04
2022-08-06T04:15:32.723Z,21.09
2022-08-06T04:18:49.925Z,21.13
2022-08-06T04:23:00.217Z,21.19
2022-08-06T04:25:20.594Z,21.26
2022-08-06T04:28:36.661Z,21.29
2022-08-06T04:32:12.188Z,21.33
2022-08-06T04:36:05.788Z,21.37
2022-08-06T04:38:30.150Z,21.43
2022-08-06T04:41:44.671Z,21.44
2022-08-06T04:45:00.681Z,21.49
2022-08-06T04:48:21.048Z,21.48
2022-08-06T04:52:36.457Z,21.48
2022-08-06T04:54:51.646Z,21.54
2022-08-06T04:58:11.409Z,21.53
2022-08-06T05:01:22.302Z,21.57
2022-08-06T05:04:38.254Z,21.59
2022-08-06T05:07:57.730Z,21.72
2022-08-06T05:11:14.750Z,21.81
2022-08-06T05:14:35.631Z,21.95
2022-08-06T05:17:53.244Z,22.02
2022-08-06T05:21:08.980Z,22.09
2022-08-06T05:24:39.203Z,22.09
2022-08-06T05:27:54.777Z,22.09
2022-08-06T05:30:55.012Z,22.09
2022-08-06T05:34:09.013Z,22.12
2022-08-06T05:38:00.684Z,22.15
2022-08-06T05:40:53.422Z,22.20
2022-08-06T05:43:58.789Z,22.28
2022-08-06T05:47:15.740Z,22.29
2022-08-06T05:50:34.221Z,22.31
2022-08-06T05:54:03.890Z,22.37
2022-08-06T05:57:09.863Z,22.39
2022-08-06T06:00:42.227Z,22.35
2022-08-06T06:03:43.617Z,22.28
2022-08-06T06:06:58.921Z,22.25
2022-08-06T06:10:16.636Z,22.21
2022-08-06T06:13:40.158Z,22.22
2022-08-06T06:16:53.246Z,22.20
2022-08-06T06:20:11.414Z,22.17
2022-08-06T06:23:30.623Z,22.16
2022-08-06T06:26:52.109Z,22.17
2022-08-06T06:30:11.328Z,22.18
2022-08-06T06:33:41.638Z,22.19
2022-08-06T06:36:49.077Z,22.16
2022-08-06T06:40:14.296Z,22.15
2022-08-06T06:43:43.965Z,22.11
2022-08-06T06:46:49.677Z,22.09
2022-08-06T06:50:09.104Z,22.09
2022-08-06T06:53:24.041Z,22.11
2022-08-06T06:56:41.812Z,22.13
2022-08-06T07:00:04.179Z,22.15
2022-08-06T07:03:15.158Z,22.19
2022-08-06T07:06:43.368Z,22.24
2022-08-06T07:10:00.128Z,22.25
2022-08-06T07:13:02.160Z,22.35
2022-08-06T07:16:34.943Z,22.42
2022-08-06T07:19:33.190Z,22.45
2022-08-06T07:24:03.439Z,22.49
2022-08-06T07:26:09.930Z,22.50
2022-08-06T07:29:48.561Z,22.54
2022-08-06T07:32:48.551Z,22.61
2022-08-06T07:36:02.530Z,22.65
2022-08-06T07:39:20.133Z,22.68
2022-08-06T07:42:35.354Z,22.66
2022-08-06T07:45:55.587Z,22.74
2022-08-06T07:49:11.240Z,22.78
2022-08-06T07:52:27.207Z,22.78
2022-08-06T07:55:41.749Z,22.81
2022-08-06T07:58:57.792Z,22.78
2022-08-06T08:02:14.477Z,22.80
2022-08-06T08:05:42.712Z,22.82
2022-08-06T08:09:01.122Z,22.81
2022-08-06T08:12:29.594Z,22.82
2022-08-06T08:15:34.661Z,22.82
2022-08-06T08:18:52.169Z,22.81
2022-08-06T08:22:07.302Z,22.82
2022-08-06T08:25:21.874Z,22.80
2022-08-06T08:28:36.984Z,22.78
2022-08-06T08:31:59.827Z,22.78
2022-08-06T08:35:09.394Z,22.78
2022-08-06T08:38:26.697Z,22.77
2022-08-06T08:41:48.006Z,22.77
2022-08-06T08:44:57.053Z,22.75
2022-08-06T08:48:13.709Z,22.78
2022-08-06T08:51:30.466Z,22.80
2022-08-06T08:54:47.939Z,22.82
2022-08-06T08:58:38.471Z,22.85
2022-08-06T09:01:52.281Z,22.88
2022-08-06T09:04:36.228Z,22.89
2022-08-06T09:08:01.555Z,22.91
2022-08-06T09:11:20.700Z,22.96
2022-08-06T09:20:50.246Z,23.00
2022-08-06T09:24:05.085Z,22.99
2022-08-06T09:27:59.200Z,23.00
2022-08-06T09:30:35.886Z,23.00
2022-08-06T09:34:29.053Z,23.00
2022-08-06T09:37:17.998Z,23.02
2022-08-06T09:40:32.238Z,23.02
2022-08-06T09:44:02.894Z,23.03
2022-08-06T09:47:02.712Z,23.00
2022-08-06T09:50:21.419Z,23.00
2022-08-06T09:53:42.119Z,22.99
2022-08-06T09:56:49.491Z,22.98
2022-08-06T10:00:03.196Z,22.98
2022-08-06T10:04:03.745Z,22.98
2022-08-06T10:06:39.816Z,22.96
2022-08-06T10:10:02.008Z,22.95
2022-08-06T10:16:33.052Z,22.99
2022-08-06T10:19:52.192Z,23.00
2022-08-06T10:23:04.617Z,23.02
2022-08-06T10:26:21.331Z,23.00
2022-08-06T10:29:37.439Z,22.99
2022-08-06T10:32:55.077Z,22.93
2022-08-06T10:36:26.775Z,22.92
2022-08-06T10:40:06.904Z,22.91
2022-08-06T10:42:58.865Z,22.91
2022-08-06T10:46:17.951Z,22.89
2022-08-06T10:50:31.124Z,22.87
2022-08-06T10:52:50.514Z,22.82
2022-08-06T10:56:05.058Z,22.77
2022-08-06T10:59:25.637Z,22.71
2022-08-06T11:02:41.342Z,22.67
2022-08-06T11:05:59.714Z,22.64
2022-08-06T11:09:59.737Z,22.56
2022-08-06T11:12:53.946Z,22.56
2022-08-06T11:16:08.164Z,22.54
2022-08-06T11:19:24.228Z,22.54
2022-08-06T11:22:53.826Z,22.51
2022-08-06T11:26:02.225Z,22.43
2022-08-06T11:29:17.420Z,22.36
2022-08-06T11:32:53.253Z,22.28
2022-08-06T11:36:09.474Z,22.29
2022-08-06T11:39:39.042Z,22.30
2022-08-06T11:42:51.431Z,22.28
2022-08-06T11:46:35.794Z,22.27
2022-08-06T11:49:48.980Z,22.18
2022-08-06T11:53:02.851Z,22.12
2022-08-06T11:56:16.640Z,22.04
2022-08-06T11:59:31.235Z,21.92
2022-08-06T12:02:57.144Z,21.84
2022-08-06T12:06:29.248Z,21.74
2022-08-06T12:09:45.104Z,21.67
2022-08-06T12:13:02.025Z,21.62
2022-08-06T12:16:35.929Z,21.58
2022-08-06T12:20:02.793Z,21.50
2022-08-06T12:23:14.815Z,21.40
2022-08-06T12:26:33.547Z,21.33
2022-08-06T12:29:48.090Z,21.23
2022-08-06T12:33:12.422Z,21.17
2022-08-06T12:36:31.617Z,21.14
2022-08-06T12:40:03.025Z,21.10
2022-08-06T12:43:29.494Z,21.02
2022-08-06T12:46:35.412Z,20.95
2022-08-06T12:49:49.152Z,20.89
2022-08-06T12:53:15.312Z,20.84
2022-08-06T12:56:33.164Z,20.80
2022-08-06T12:59:47.223Z,20.75
2022-08-06T13:03:01.930Z,20.69
2022-08-06T13:06:31.788Z,20.64
2022-08-06T13:09:56.031Z,20.52
2022-08-06T13:14:14.640Z,20.48
2022-08-06T13:16:25.448Z,20.42
2022-08-06T13:19:39.581Z,20.32
2022-08-06T13:23:00.763Z,20.26
2022-08-06T13:26:27.006Z,20.23
2022-08-06T13:30:32.743Z,20.20
2022-08-06T13:32:55.071Z,20.22
2022-08-06T13:36:17.707Z,20.21
2022-08-06T13:39:37.966Z,20.09
2022-08-06T13:43:05.389Z,20.08
2022-08-06T13:46:27.963Z,20.05
2022-08-06T13:49:38.551Z,20.02
2022-08-06T13:52:54.982Z,19.99
2022-08-06T13:56:11.402Z,19.96
2022-08-06T13:59:42.623Z,19.95
2022-08-06T14:02:42.701Z,19.95
2022-08-06T14:05:56.303Z,19.91
2022-08-06T14:09:19.970Z,19.90
2022-08-06T14:12:29.853Z,19.90
2022-08-06T14:15:42.970Z,19.90
2022-08-06T14:19:03.551Z,19.93
2022-08-06T14:22:13.230Z,19.93
2022-08-06T14:25:28.652Z,19.92
2022-08-06T14:28:48.273Z,19.87
2022-08-06T14:31:59.174Z,19.83
2022-08-06T14:35:14.782Z,19.82
2022-08-06T14:38:32.109Z,19.85
2022-08-06T14:41:58.374Z,19.81
2022-08-06T14:45:13.173Z,19.78
2022-08-06T14:48:31.358Z,19.76
2022-08-06T14:52:19.534Z,19.73
2022-08-06T14:55:07.114Z,19.71
2022-08-06T14:58:19.569Z,19.72
2022-08-06T15:01:38.134Z,19.69
2022-08-06T15:04:52.616Z,19.72
2022-08-06T15:08:08.415Z,19.69
2022-08-06T15:11:23.153Z,19.64
2022-08-06T15:14:50.851Z,19.60
2022-08-06T15:18:11.513Z,19.63
2022-08-06T15:21:15.979Z,19.63
2022-08-06T15:24:28.748Z,19.60
2022-08-06T15:27:42.700Z,19.58
2022-08-06T15:30:59.105Z,19.55
2022-08-06T15:34:12.349Z,19.59
2022-08-06T15:37:54.645Z,19.58
2022-08-06T15:40:43.041Z,19.58
2022-08-06T15:43:57.093Z,19.58
2022-08-06T15:47:14.963Z,19.56
2022-08-06T15:50:36.240Z,19.55
2022-08-06T15:53:54.626Z,19.55
2022-08-06T15:56:59.900Z,19.52
2022-08-06T16:00:17.557Z,19.52
2022-08-06T16:03:33.116Z,19.45
2022-08-06T16:06:48.202Z,19.45
2022-08-06T16:10:07.368Z,19.50
2022-08-06T16:13:19.673Z,19.45
2022-08-06T16:16:36.084Z,19.40
2022-08-06T16:19:50.454Z,19.34
2022-08-06T16:23:06.940Z,19.25
2022-08-06T16:26:40.705Z,19.23
2022-08-06T16:29:37.509Z,19.17
2022-08-06T16:32:51.096Z,19.15
2022-08-06T16:36:04.620Z,19.13
2022-08-06T16:39:35.934Z,19.13
2022-08-06T16:42:35.823Z,19.09
2022-08-06T16:45:49.924Z,19.10
2022-08-06T16:49:04.538Z,19.07
2022-08-06T16:52:44.307Z,19.08
2022-08-06T16:55:34.953Z,19.10
2022-08-06T16:58:53.318Z,19.07
2022-08-06T17:02:22.433Z,19.07
2022-08-06T17:05:45.295Z,19.07
2022-08-06T17:08:52.691Z,19.07
2022-08-06T17:12:07.473Z,19.08
2022-08-06T17:15:36.458Z,19.12
2022-08-06T17:18:38.120Z,19.14
2022-08-06T17:21:59.688Z,19.14
2022-08-06T17:25:07.296Z,19.15
2022-08-06T17:28:27.095Z,19.14
2022-08-06T17:31:55.098Z,19.18
2022-08-06T17:34:53.725Z,19.16
2022-08-06T17:38:08.589Z,19.15
2022-08-06T17:41:26.730Z,19.15
2022-08-06T17:44:39.346Z,19.16
2022-08-06T17:47:55.170Z,19.13
2022-08-06T17:51:09.581Z,19.09
2022-08-06T17:54:46.521Z,19.09
2022-08-06T17:58:03.797Z,19.05
2022-08-06T18:01:09.846Z,19.04
2022-08-06T18:04:22.448Z,19.03
2022-08-06T18:08:11.158Z,19.01
2022-08-06T18:10:47.547Z,18.96
2022-08-06T18:14:01.936Z,18.91
2022-08-06T18:17:17.178Z,18.87
2022-08-06T18:20:32.824Z,18.84
2022-08-06T18:23:47.083Z,18.79
2022-08-06T18:27:00.736Z,18.76
2022-08-06T18:30:37.568Z,18.83
2022-08-06T18:33:36.080Z,18.82
2022-08-06T18:36:50.014Z,18.75
2022-08-06T18:40:19.430Z,18.74
2022-08-06T18:43:19.903Z,18.73
2022-08-06T18:46:56.150Z,18.71
2022-08-06T18:49:54.142Z,18.69
2022-08-06T18:53:09.421Z,18.62
2022-08-06T18:56:24.808Z,18.63
2022-08-06T18:59:43.388Z,18.64
2022-08-06T19:02:55.670Z,18.65
2022-08-06T19:06:09.538Z,18.66
2022-08-06T19:09:25.150Z,18.64
2022-08-06T19:12:42.683Z,18.64
2022-08-06T19:15:57.004Z,18.61
2022-08-06T19:19:10.715Z,18.63
2022-08-06T19:22:25.582Z,18.57
2022-08-06T19:25:52.036Z,18.58
2022-08-06T19:28:56.167Z,18.55
2022-08-06T19:32:11.717Z,18.56
2022-08-06T19:36:03.512Z,18.59
2022-08-06T19:38:45.780Z,18.56
2022-08-06T19:42:02.111Z,18.56
2022-08-06T19:45:17.757Z,18.55
2022-08-06T19:48:31.698Z,18.53
2022-08-06T19:52:04.478Z,18.52
2022-08-06T19:56:05.203Z,18.55
2022-08-06T19:58:19.950Z,18.54
2022-08-06T20:01:36.240Z,18.51
2022-08-06T20:04:53.059Z,18.45
2022-08-06T20:08:31.267Z,18.43
2022-08-06T20:12:02.703Z,18.36
2022-08-06T20:14:38.936Z,18.38
2022-08-06T20:17:56.099Z,18.43
2022-08-06T20:21:19.745Z,18.35
2022-08-06T20:24:28.227Z,18.32
2022-08-06T20:29:07.292Z,18.32
2022-08-06T20:30:58.518Z,18.27
2022-08-06T20:34:12.771Z,18.23
2022-08-06T20:37:29.495Z,18.19
2022-08-06T20:41:57.376Z,18.13
2022-08-06T20:44:04.791Z,18.13
2022-08-06T20:47:46.103Z,18.13
2022-08-06T20:50:33.734Z,18.13
2022-08-06T20:53:55.982Z,18.11
2022-08-06T20:57:04.928Z,18.09
2022-08-06T21:00:28.427Z,18.06
2022-08-06T21:05:13.615Z,18.11
2022-08-06T21:06:55.611Z,18.10
2022-08-06T21:10:12.052Z,18.16
2022-08-06T21:13:35.723Z,18.16
2022-08-06T21:16:45.535Z,18.13
2022-08-06T21:20:09.340Z,18.12
2022-08-06T21:23:12.501Z,18.10
2022-08-06T21:26:34.790Z,18.05
2022-08-06T21:30:08.961Z,18.07
2022-08-06T21:32:59.002Z,18.13
2022-08-06T21:36:19.279Z,18.15
2022-08-06T21:39:56.615Z,18.12
2022-08-06T21:42:47.947Z,18.11
2022-08-06T21:46:06.226Z,18.09
2022-08-06T21:49:58.120Z,18.03
2022-08-06T21:52:33.950Z,18.04
2022-08-06T21:56:37.584Z,18.00
2022-08-06T21:59:03.242Z,17.99
2022-08-06T22:02:21.769Z,17.91
2022-08-06T22:06:20.436Z,17.86
2022-08-06T22:08:53.053Z,17.84
2022-08-06T22:12:38.507Z,17.79
2022-08-06T22:15:19.183Z,17.77
2022-08-06T22:18:32.731Z,17.77
2022-08-06T22:21:50.408Z,17.86
2022-08-06T22:25:01.765Z,17.89
2022-08-06T22:28:23.614Z,17.78
2022-08-06T22:31:56.995Z,17.73
2022-08-06T22:34:51.709Z,17.69
2022-08-06T22:38:16.819Z,17.66
2022-08-06T22:41:20.691Z,17.61
2022-08-06T22:44:57.401Z,17.57
2022-08-06T22:47:55.750Z,17.56
2022-08-06T22:51:18.623Z,17.51
2022-08-06T22:54:30.379Z,17.45
2022-08-06T22:58:04.225Z,17.41
2022-08-06T23:00:57.777Z,17.36
2022-08-06T23:04:09.278Z,17.34
2022-08-06T23:07:26.060Z,17.27
2022-08-06T23:10:38.841Z,17.20
2022-08-06T23:13:54.210Z,17.13
2022-08-06T23:17:09.465Z,17.04
2022-08-06T23:20:25.839Z,16.97
2022-08-06T23:23:46.883Z,16.92
2022-08-06T23:26:58.812Z,16.85
2022-08-06T23:30:20.132Z,16.76
2022-08-06T23:33:38.491Z,16.66
2022-08-06T23:36:45.895Z,16.59
2022-08-06T23:40:12.051Z,16.57
2022-08-06T23:43:19.435Z,16.53
2022-08-06T23:46:33.469Z,16.52
2022-08-06T23:49:47.109Z,16.53
2022-08-06T23:53:00.644Z,16.55
2022-08-06T23:56:16.877Z,16.53
2022-08-06T23:59:45.779Z,16.50
